Time;durP1;ratioP1;P1;durP2;ratioP2;P2;SDS_P1;SDS_P2;PMS_P1;PMS_P2;Temp;Humidity;BMP_temperature;BMP_pressure;BME280_temperature;BME280_humidity;BME280_pressure;Samples;Min_cycle;Max_cycle;Signal;HPM_P1;HPM_P2
2023/02/01 00:01:33;;;;;;;23.80;6.27;;;7.80;99.90;;;;;;5100319;28;20201;-89
2023/02/01 00:04:01;;;;;;;17.43;5.77;;;7.70;99.90;;;;;;5100685;28;20204;-86
2023/02/01 00:06:28;;;;;;;17.47;5.60;;;7.70;99.90;;;;;;5100676;28;20200;-87
2023/02/01 00:08:57;;;;;;;18.37;5.00;;;7.80;99.90;;;;;;5098623;28;20193;-83
2023/02/01 00:11:25;;;;;;;17.40;4.33;;;7.80;99.90;;;;;;5101429;28;20201;-81
2023/02/01 00:14:00;;;;;;;16.87;4.93;;;7.80;99.90;;;;;;5104050;28;20229;-83
2023/02/01 00:16:30;;;;;;;11.17;3.97;;;7.90;99.90;;;;;;5101151;28;20212;-84
2023/02/01 00:19:00;;;;;;;13.13;4.53;;;7.90;99.90;;;;;;5101180;28;20228;-80
2023/02/01 00:21:30;;;;;;;18.47;4.67;;;7.90;99.90;;;;;;5106972;28;20232;-89
2023/02/01 00:24:02;;;;;;;16.33;4.70;;;7.90;99.90;;;;;;5107255;28;20217;-90
2023/02/01 00:26:32;;;;;;;15.90;4.23;;;7.90;99.90;;;;;;5106950;28;20280;-89
2023/02/01 00:29:02;;;;;;;21.20;4.80;;;7.90;99.90;;;;;;5107812;28;20287;-92
2023/02/01 00:31:31;;;;;;;16.80;4.93;;;7.80;99.90;;;;;;5104914;28;20426;-90
2023/02/01 00:33:58;;;;;;;19.57;4.40;;;7.80;99.90;;;;;;5101655;28;20672;-91
2023/02/01 00:36:25;;;;;;;17.87;4.30;;;7.80;99.90;;;;;;5101268;28;20223;-80
2023/02/01 00:38:52;;;;;;;19.20;4.43;;;7.80;99.90;;;;;;5100462;28;20327;-86
2023/02/01 00:41:22;;;;;;;15.27;4.37;;;7.80;99.90;;;;;;5101474;28;20209;-82
2023/02/01 00:43:50;;;;;;;17.67;4.33;;;7.80;99.90;;;;;;5101894;28;20228;-84
2023/02/01 00:46:21;;;;;;;19.60;4.27;;;7.80;99.90;;;;;;5102565;28;20223;-80
2023/02/01 00:48:52;;;;;;;12.53;3.97;;;7.90;99.90;;;;;;5100582;28;20231;-83
2023/02/01 00:51:22;;;;;;;18.67;4.50;;;7.80;99.90;;;;;;5102413;28;20196;-81
2023/02/01 00:53:49;;;;;;;12.77;3.40;;;7.70;99.90;;;;;;5101534;28;20200;-81
2023/02/01 00:56:17;;;;;;;22.30;4.30;;;7.60;99.90;;;;;;5100872;28;20196;-84
2023/02/01 00:58:44;;;;;;;18.93;4.03;;;7.50;99.90;;;;;;5101217;28;20223;-87
2023/02/01 01:01:16;;;;;;;18.43;4.27;;;7.50;99.90;;;;;;5101766;28;20185;-84
2023/02/01 01:03:46;;;;;;;15.47;4.57;;;7.50;99.90;;;;;;5101200;28;20201;-84
2023/02/01 01:06:15;;;;;;;23.00;4.57;;;7.50;99.90;;;;;;5102010;28;20558;-81
2023/02/01 01:08:48;;;;;;;19.70;4.43;;;7.50;99.90;;;;;;5100865;28;20201;-85
2023/02/01 01:11:17;;;;;;;14.07;4.17;;;7.50;99.90;;;;;;5100556;28;20201;-83
2023/02/01 01:13:47;;;;;;;14.13;4.00;;;7.40;99.90;;;;;;5101176;28;20200;-81
2023/02/01 01:16:14;;;;;;;16.58;4.97;;;7.40;99.90;;;;;;5098855;28;20434;-86
2023/02/01 01:18:41;;;;;;;17.90;4.57;;;7.40;99.90;;;;;;5098557;28;20236;-85
2023/02/01 01:21:12;;;;;;;14.00;3.93;;;7.30;99.90;;;;;;5099690;28;20211;-84
2023/02/01 01:23:39;;;;;;;18.60;4.43;;;7.30;99.90;;;;;;5098788;28;20190;-85
2023/02/01 01:26:07;;;;;;;16.73;4.27;;;7.40;99.90;;;;;;5098768;28;20216;-84
2023/02/01 01:28:34;;;;;;;13.93;3.87;;;7.20;99.90;;;;;;5100496;28;20201;-86
2023/02/01 01:31:01;;;;;;;9.30;4.03;;;7.30;99.90;;;;;;5098544;28;20254;-83
2023/02/01 01:33:28;;;;;;;17.07;4.30;;;7.20;99.90;;;;;;5097986;28;20209;-84
2023/02/01 01:35:57;;;;;;;15.63;4.03;;;7.20;99.90;;;;;;5098973;28;20334;-85
2023/02/01 01:38:26;;;;;;;13.23;4.13;;;7.10;99.90;;;;;;5110688;28;20231;-86
2023/02/01 01:40:53;;;;;;;21.50;4.20;;;7.10;99.90;;;;;;5109708;28;20199;-88
2023/02/01 01:43:22;;;;;;;17.10;4.37;;;6.90;99.90;;;;;;5109611;28;20201;-83
2023/02/01 01:45:53;;;;;;;16.80;4.03;;;6.90;99.90;;;;;;5109669;28;20217;-84
2023/02/01 01:48:26;;;;;;;18.30;4.60;;;7.00;99.90;;;;;;5108191;28;20257;-84
2023/02/01 01:51:01;;;;;;;22.20;4.03;;;6.90;99.90;;;;;;5107970;28;20205;-86
2023/02/01 01:53:34;;;;;;;12.90;4.03;;;6.90;99.90;;;;;;5108260;28;20191;-85
2023/02/01 01:56:02;;;;;;;16.23;3.50;;;6.70;99.90;;;;;;5105240;28;20217;-87
2023/02/01 01:58:32;;;;;;;16.03;4.93;;;6.70;99.90;;;;;;5106423;28;20225;-86
2023/02/01 02:01:00;;;;;;;18.03;4.03;;;6.70;99.90;;;;;;5107487;28;20292;-85
2023/02/01 02:03:33;;;;;;;13.33;4.07;;;6.60;99.90;;;;;;5106621;28;20248;-88
2023/02/01 02:06:03;;;;;;;20.67;4.20;;;6.50;99.90;;;;;;5104418;28;20247;-87
2023/02/01 02:08:32;;;;;;;11.63;4.17;;;6.60;99.90;;;;;;5095408;28;20204;-84
2023/02/01 02:11:02;;;;;;;14.33;3.67;;;6.60;99.90;;;;;;5093747;28;20266;-84
2023/02/01 02:13:33;;;;;;;22.43;5.00;;;6.70;99.90;;;;;;5095929;28;20196;-85
2023/02/01 02:16:27;;;;;;;16.53;4.37;;;6.70;99.90;;;;;;5095459;28;20235;-86
2023/02/01 02:19:12;;;;;;;21.70;4.50;;;6.70;99.90;;;;;;5094219;28;20305;-86
2023/02/01 02:21:57;;;;;;;17.03;4.07;;;6.70;99.90;;;;;;5095696;28;20636;-82
2023/02/01 02:25:03;;;;;;;14.80;4.30;;;6.70;99.90;;;;;;5095603;28;20205;-84
2023/02/01 02:27:47;;;;;;;12.80;4.07;;;6.80;99.90;;;;;;5094392;28;20201;-87
2023/02/01 02:30:38;;;;;;;21.60;4.87;;;6.80;99.90;;;;;;5095270;28;20197;-86
2023/02/01 02:33:53;;;;;;;14.00;4.60;;;6.90;99.90;;;;;;5083063;28;20209;-85
2023/02/01 02:36:34;;;;;;;17.60;4.83;;;6.90;99.90;;;;;;5083622;28;20636;-86
2023/02/01 02:39:08;;;;;;;17.43;4.57;;;6.70;99.90;;;;;;5096246;28;20687;-87
2023/02/01 02:47:32;;;;;;;20.47;4.53;;;6.70;99.90;;;;;;5098508;28;20205;-83
2023/02/01 03:04:26;;;;;;;16.40;4.17;;;6.70;99.90;;;;;;5038920;28;20254;-85
2023/02/01 03:06:55;;;;;;;15.57;3.77;;;6.70;99.90;;;;;;5033207;28;20200;-87
2023/02/01 03:09:27;;;;;;;19.57;4.40;;;6.70;99.90;;;;;;5098528;28;20189;-84
2023/02/01 03:14:51;;;;;;;19.57;4.47;;;6.70;99.90;;;;;;5096646;28;20939;-86
2023/02/01 03:17:24;;;;;;;18.77;4.17;;;6.70;99.90;;;;;;5099033;28;20185;-86
2023/02/01 03:19:54;;;;;;;17.33;4.57;;;6.70;99.90;;;;;;5100070;28;20308;-86
2023/02/01 03:22:31;;;;;;;18.30;4.23;;;6.70;99.90;;;;;;5098657;28;20200;-86
2023/02/01 03:25:05;;;;;;;17.80;3.67;;;6.70;99.90;;;;;;5093811;28;20301;-83
2023/02/01 03:27:38;;;;;;;15.83;3.50;;;6.70;99.90;;;;;;5095027;28;20258;-87
2023/02/01 03:30:10;;;;;;;19.80;4.33;;;6.60;99.90;;;;;;5094250;28;20204;-87
2023/02/01 03:35:27;;;;;;;18.23;4.20;;;6.60;99.90;;;;;;5096902;28;20207;-85
2023/02/01 03:38:04;;;;;;;22.53;4.63;;;6.60;99.90;;;;;;5096791;28;20186;-84
2023/02/01 03:40:35;;;;;;;21.37;5.40;;;6.60;99.90;;;;;;5093550;28;20451;-83
2023/02/01 03:43:07;;;;;;;15.70;4.20;;;6.60;99.90;;;;;;5095539;28;20691;-82
2023/02/01 03:45:42;;;;;;;16.43;4.30;;;6.70;99.90;;;;;;5094020;28;20228;-85
2023/02/01 03:48:10;;;;;;;16.83;3.73;;;6.70;99.90;;;;;;5094778;28;20276;-84
2023/02/01 03:50:39;;;;;;;15.10;4.10;;;6.70;99.90;;;;;;5094287;28;20210;-82
2023/02/01 03:53:11;;;;;;;15.63;4.40;;;6.60;99.90;;;;;;5094408;28;20196;-81
2023/02/01 03:55:40;;;;;;;16.43;4.23;;;6.50;99.90;;;;;;5094228;28;20197;-82
2023/02/01 03:58:13;;;;;;;14.93;3.60;;;6.50;99.90;;;;;;5093010;28;20201;-82
2023/02/01 04:00:44;;;;;;;22.53;4.27;;;6.50;99.90;;;;;;5095814;28;20217;-82
2023/02/01 04:03:13;;;;;;;17.10;4.50;;;6.50;99.90;;;;;;5097574;28;20209;-82
2023/02/01 04:05:43;;;;;;;19.73;4.20;;;6.40;99.90;;;;;;5096453;28;20215;-84
2023/02/01 04:08:11;;;;;;;13.80;3.70;;;6.40;99.90;;;;;;5097524;28;20204;-81
2023/02/01 04:10:39;;;;;;;23.10;4.20;;;6.40;99.90;;;;;;5098088;28;20206;-82
2023/02/01 04:13:09;;;;;;;17.00;4.23;;;6.30;99.90;;;;;;5096730;28;20197;-81
2023/02/01 04:15:38;;;;;;;21.10;4.30;;;6.30;99.90;;;;;;5096786;28;20197;-82
2023/02/01 04:18:07;;;;;;;16.27;3.30;;;6.30;99.90;;;;;;5095422;28;20201;-81
2023/02/01 04:20:37;;;;;;;16.17;3.90;;;6.20;99.90;;;;;;5096517;28;20238;-81
2023/02/01 04:23:05;;;;;;;18.50;4.03;;;6.30;99.90;;;;;;5097111;28;20204;-86
2023/02/01 04:25:36;;;;;;;17.70;4.03;;;6.20;99.90;;;;;;5101540;28;20212;-84
2023/02/01 04:28:04;;;;;;;20.80;4.83;;;6.20;99.90;;;;;;5102266;28;20208;-81
2023/02/01 04:30:32;;;;;;;15.23;3.97;;;6.20;99.90;;;;;;5095401;28;20262;-82
2023/02/01 04:32:59;;;;;;;19.60;4.10;;;6.20;99.90;;;;;;5096836;28;20212;-82
2023/02/01 04:35:26;;;;;;;17.70;3.57;;;6.20;99.90;;;;;;5096571;28;20201;-84
2023/02/01 04:37:53;;;;;;;14.17;3.47;;;6.10;99.90;;;;;;5102031;28;20213;-81
2023/02/01 04:40:21;;;;;;;14.13;4.00;;;6.10;99.90;;;;;;5101664;28;20244;-81
2023/02/01 04:42:50;;;;;;;16.70;3.30;;;6.20;99.90;;;;;;5097432;28;20236;-82
2023/02/01 04:45:24;;;;;;;18.63;3.97;;;6.10;99.90;;;;;;5099122;28;20228;-80
2023/02/01 04:47:52;;;;;;;18.73;4.43;;;6.10;99.90;;;;;;5097730;28;20201;-79
2023/02/01 04:50:23;;;;;;;19.27;3.93;;;6.10;99.90;;;;;;5100758;28;20209;-85
2023/02/01 04:52:55;;;;;;;12.80;4.07;;;6.00;99.90;;;;;;5101744;28;20211;-82
2023/02/01 04:55:23;;;;;;;23.00;4.20;;;6.10;99.90;;;;;;5102441;28;20434;-82
2023/02/01 04:57:52;;;;;;;26.97;4.97;;;6.00;99.90;;;;;;5100247;28;20193;-84
2023/02/01 05:00:20;;;;;;;16.83;4.10;;;6.00;99.90;;;;;;5099122;28;20247;-82
2023/02/01 05:02:47;;;;;;;17.57;4.60;;;6.00;99.90;;;;;;5100801;28;20201;-81
2023/02/01 05:05:15;;;;;;;15.30;4.33;;;6.00;99.90;;;;;;5101466;28;20196;-82
2023/02/01 05:07:44;;;;;;;20.77;4.27;;;5.90;99.90;;;;;;5099456;28;20197;-83
2023/02/01 05:10:11;;;;;;;17.33;4.30;;;5.80;99.90;;;;;;5100357;28;20198;-82
2023/02/01 05:15:39;;;;;;;19.17;3.70;;;5.80;99.90;;;;;;5099455;28;20295;-80
2023/02/01 05:18:07;;;;;;;21.00;4.67;;;5.80;99.90;;;;;;5099919;28;20628;-86
2023/02/01 05:20:35;;;;;;;21.77;4.30;;;5.70;99.90;;;;;;5098691;28;20258;-86
2023/02/01 05:23:03;;;;;;;18.57;3.97;;;5.60;99.90;;;;;;5098535;28;20201;-86
2023/02/01 05:25:35;;;;;;;20.70;4.20;;;5.60;99.90;;;;;;5099241;28;20201;-83
2023/02/01 05:28:05;;;;;;;22.03;3.90;;;5.60;99.90;;;;;;5101664;28;20213;-84
2023/02/01 05:30:39;;;;;;;15.80;3.63;;;5.50;99.90;;;;;;5103872;28;20211;-87
2023/02/01 05:33:06;;;;;;;20.87;4.80;;;5.50;99.90;;;;;;5106627;28;20216;-86
2023/02/01 05:35:39;;;;;;;16.77;3.97;;;5.60;99.90;;;;;;5102763;28;20212;-85
2023/02/01 05:38:07;;;;;;;12.43;4.23;;;5.60;99.90;;;;;;5100929;28;20227;-86
2023/02/01 05:40:36;;;;;;;16.70;4.63;;;5.60;99.90;;;;;;5101116;28;20311;-87
2023/02/01 05:43:05;;;;;;;20.90;3.27;;;5.50;99.90;;;;;;5103134;28;20204;-86
2023/02/01 05:45:32;;;;;;;16.77;3.93;;;5.50;99.90;;;;;;5099978;28;20217;-87
2023/02/01 05:48:03;;;;;;;15.33;3.77;;;5.50;99.90;;;;;;5099565;28;20212;-87
2023/02/01 05:50:30;;;;;;;15.80;3.53;;;5.50;99.90;;;;;;5102095;28;20205;-85
2023/02/01 05:52:57;;;;;;;15.67;3.90;;;5.40;99.90;;;;;;5098645;28;20201;-82
2023/02/01 05:55:24;;;;;;;15.33;4.03;;;5.40;99.90;;;;;;5095415;28;20201;-81
2023/02/01 05:57:54;;;;;;;19.17;4.43;;;5.40;99.90;;;;;;5094193;28;20561;-86
2023/02/01 06:00:22;;;;;;;23.97;4.37;;;5.40;99.90;;;;;;5096917;28;20243;-85
2023/02/01 06:02:49;;;;;;;17.00;3.77;;;5.30;99.90;;;;;;5087963;28;20197;-83
2023/02/01 06:05:21;;;;;;;16.70;3.80;;;5.40;99.90;;;;;;5075564;28;20193;-83
2023/02/01 06:07:49;;;;;;;23.70;4.13;;;5.40;99.90;;;;;;5074782;28;20205;-84
2023/02/01 06:10:18;;;;;;;29.10;4.03;;;5.40;99.90;;;;;;5080742;28;20657;-84
2023/02/01 06:12:47;;;;;;;16.87;3.63;;;5.40;99.90;;;;;;5077767;28;20365;-81
2023/02/01 06:15:15;;;;;;;19.50;3.67;;;5.30;99.90;;;;;;5077405;28;20194;-80
2023/02/01 06:17:46;;;;;;;21.10;4.57;;;5.30;99.90;;;;;;5074984;28;20204;-80
2023/02/01 06:20:15;;;;;;;22.03;4.40;;;5.40;99.90;;;;;;5078864;28;20241;-80
2023/02/01 06:22:43;;;;;;;16.80;4.40;;;5.30;99.90;;;;;;5078943;28;20192;-82
2023/02/01 06:25:17;;;;;;;18.90;4.80;;;5.30;99.90;;;;;;5094768;28;20212;-84
2023/02/01 06:27:44;;;;;;;15.03;3.77;;;5.30;99.90;;;;;;5094794;28;20189;-82
2023/02/01 06:30:14;;;;;;;16.10;4.03;;;5.30;99.90;;;;;;5095038;28;20710;-86
2023/02/01 06:32:41;;;;;;;23.23;4.60;;;5.30;99.90;;;;;;5095307;28;20569;-81
2023/02/01 06:35:11;;;;;;;21.10;4.03;;;5.40;99.90;;;;;;5093040;28;20228;-89
2023/02/01 06:37:45;;;;;;;21.03;4.20;;;5.30;99.90;;;;;;5101125;28;20272;-89
2023/02/01 06:40:13;;;;;;;20.77;4.90;;;5.40;99.90;;;;;;5098200;28;20240;-89
2023/02/01 06:42:46;;;;;;;19.43;3.70;;;5.30;99.90;;;;;;5098857;28;20202;-88
2023/02/01 06:45:14;;;;;;;21.67;4.47;;;5.30;99.90;;;;;;5106546;28;20236;-89
2023/02/01 06:47:44;;;;;;;14.03;4.23;;;5.30;99.90;;;;;;5108878;28;20211;-90
2023/02/01 06:50:12;;;;;;;20.10;3.87;;;5.30;99.90;;;;;;5113168;28;20215;-87
2023/02/01 06:52:39;;;;;;;19.07;4.70;;;5.30;99.90;;;;;;5108251;28;20201;-90
2023/02/01 06:55:13;;;;;;;23.87;4.57;;;5.30;99.90;;;;;;5108153;28;20200;-89
2023/02/01 06:57:41;;;;;;;19.93;3.57;;;5.20;99.90;;;;;;5111764;28;20213;-88
2023/02/01 07:00:09;;;;;;;19.57;4.73;;;5.30;99.90;;;;;;5109936;28;20282;-89
2023/02/01 07:02:36;;;;;;;18.80;4.37;;;5.20;99.90;;;;;;5097139;28;20205;-88
2023/02/01 07:05:07;;;;;;;17.70;4.03;;;5.30;99.90;;;;;;5099330;28;20197;-86
2023/02/01 07:07:33;;;;;;;26.67;5.63;;;5.20;99.90;;;;;;5093512;28;20580;-79
2023/02/01 07:10:00;;;;;;;19.27;4.23;;;5.30;99.90;;;;;;5082092;28;20216;-79
2023/02/01 07:12:29;;;;;;;22.23;5.00;;;5.30;99.90;;;;;;5083210;28;20224;-77
2023/02/01 07:14:56;;;;;;;16.90;4.17;;;5.40;99.90;;;;;;5087985;28;20197;-77
2023/02/01 07:17:23;;;;;;;20.70;3.87;;;5.30;99.90;;;;;;5085187;28;20289;-77
2023/02/01 07:19:52;;;;;;;19.40;3.77;;;5.30;99.90;;;;;;5088974;28;20224;-75
2023/02/01 07:22:20;;;;;;;17.70;4.10;;;5.40;99.90;;;;;;5097558;28;20201;-81
2023/02/01 07:24:47;;;;;;;13.53;3.53;;;5.40;99.90;;;;;;5097096;28;20240;-82
2023/02/01 07:27:14;;;;;;;17.53;3.83;;;5.40;99.90;;;;;;5097090;28;20213;-81
2023/02/01 07:29:42;;;;;;;20.70;3.90;;;5.30;99.90;;;;;;5096715;28;20206;-86
2023/02/01 07:32:09;;;;;;;17.90;3.73;;;5.30;99.90;;;;;;5096048;28;20211;-82
2023/02/01 07:34:36;;;;;;;19.70;5.50;;;5.30;99.90;;;;;;5094822;28;20445;-82
2023/02/01 07:37:04;;;;;;;25.50;4.80;;;5.50;99.90;;;;;;5097502;28;20205;-81
2023/02/01 07:39:31;;;;;;;16.90;4.53;;;5.50;99.90;;;;;;5097722;28;20470;-82
2023/02/01 07:41:58;;;;;;;22.90;4.90;;;5.50;99.90;;;;;;5100584;28;20661;-82
2023/02/01 07:44:25;;;;;;;19.17;4.83;;;5.50;99.90;;;;;;5097238;28;20221;-82
2023/02/01 07:46:54;;;;;;;17.57;3.73;;;5.50;99.90;;;;;;5098647;28;20205;-81
2023/02/01 07:49:20;;;;;;;15.30;3.70;;;5.40;99.90;;;;;;5097307;28;20198;-81
2023/02/01 07:51:49;;;;;;;16.83;4.33;;;5.60;99.90;;;;;;5102051;28;20201;-81
2023/02/01 07:54:16;;;;;;;18.63;4.20;;;5.60;99.90;;;;;;5100290;28;20201;-81
2023/02/01 07:56:43;;;;;;;22.87;3.70;;;5.60;99.90;;;;;;5101978;28;20223;-84
2023/02/01 07:59:10;;;;;;;21.97;4.90;;;5.60;99.90;;;;;;5102269;28;20637;-82
2023/02/01 08:01:36;;;;;;;20.87;3.87;;;5.60;99.90;;;;;;5099458;28;20306;-84
2023/02/01 08:04:05;;;;;;;16.73;4.30;;;5.60;99.90;;;;;;5099140;28;20212;-80
2023/02/01 08:06:38;;;;;;;18.53;4.73;;;5.60;99.90;;;;;;5104705;28;20658;-91
2023/02/01 08:09:07;;;;;;;23.67;4.87;;;5.70;99.90;;;;;;5104359;28;20573;-86
2023/02/01 08:11:40;;;;;;;22.60;5.60;;;5.70;99.90;;;;;;5102540;28;20228;-89
2023/02/01 08:14:09;;;;;;;13.07;5.23;;;5.90;99.90;;;;;;5098414;28;20205;-85
2023/02/01 08:16:39;;;;;;;16.40;3.87;;;5.80;99.90;;;;;;5098314;28;20209;-89
2023/02/01 08:19:07;;;;;;;20.17;4.43;;;5.80;99.90;;;;;;5098664;28;20212;-87
2023/02/01 08:21:37;;;;;;;17.97;4.10;;;5.90;99.90;;;;;;5102188;28;20778;-85
2023/02/01 08:24:11;;;;;;;27.93;4.60;;;6.00;99.90;;;;;;5100572;28;20201;-90
2023/02/01 08:26:38;;;;;;;20.97;4.63;;;6.00;99.90;;;;;;5088870;28;20296;-80
2023/02/01 08:29:08;;;;;;;13.63;4.30;;;6.00;99.90;;;;;;5082732;28;20200;-83
2023/02/01 08:31:35;;;;;;;20.53;4.17;;;6.00;99.90;;;;;;5083801;28;20280;-88
2023/02/01 08:34:04;;;;;;;16.20;4.20;;;6.20;99.90;;;;;;5082713;28;20212;-82
2023/02/01 08:36:33;;;;;;;12.13;3.77;;;6.20;99.90;;;;;;5096708;28;20205;-82
2023/02/01 08:39:05;;;;;;;23.33;4.70;;;6.30;99.90;;;;;;5084396;28;20193;-80
2023/02/01 08:41:32;;;;;;;19.53;4.43;;;6.30;99.90;;;;;;5084423;28;20304;-83
2023/02/01 08:43:59;;;;;;;18.40;3.90;;;6.30;99.90;;;;;;5088296;28;20194;-79
2023/02/01 08:46:29;;;;;;;17.10;3.80;;;6.30;99.90;;;;;;5086606;28;20209;-84
2023/02/01 08:49:02;;;;;;;20.03;3.97;;;6.30;99.90;;;;;;5092366;28;20190;-80
2023/02/01 08:51:33;;;;;;;15.77;4.13;;;6.30;99.90;;;;;;5093993;28;20637;-78
2023/02/01 08:54:01;;;;;;;14.10;4.13;;;6.30;99.90;;;;;;5099587;28;20578;-80
2023/02/01 08:56:28;;;;;;;15.00;3.97;;;6.40;99.90;;;;;;5099988;28;20227;-89
2023/02/01 08:58:56;;;;;;;17.10;3.70;;;6.40;99.90;;;;;;5098911;28;20196;-79
2023/02/01 09:01:25;;;;;;;22.17;5.35;;;6.40;99.90;;;;;;5096946;28;20534;-79
2023/02/01 09:03:51;;;;;;;16.17;4.17;;;6.40;99.90;;;;;;5082793;28;20190;-80
2023/02/01 09:06:18;;;;;;;18.00;4.00;;;6.50;99.90;;;;;;5075003;28;20209;-75
2023/02/01 09:08:47;;;;;;;19.77;4.33;;;6.50;99.90;;;;;;5078985;28;20276;-75
2023/02/01 09:11:16;;;;;;;22.07;5.13;;;6.50;99.90;;;;;;5086351;28;20193;-75
2023/02/01 09:13:47;;;;;;;13.00;3.97;;;6.50;99.90;;;;;;5097283;28;20205;-75
2023/02/01 09:16:14;;;;;;;18.83;3.70;;;6.70;99.90;;;;;;5099883;28;20189;-79
2023/02/01 09:18:41;;;;;;;14.63;3.90;;;6.70;99.90;;;;;;5098295;28;20197;-79
2023/02/01 09:21:08;;;;;;;17.97;4.90;;;6.70;99.90;;;;;;5097577;28;20665;-82
2023/02/01 09:23:36;;;;;;;19.93;4.20;;;6.80;99.90;;;;;;5096925;28;20209;-80
2023/02/01 09:26:07;;;;;;;16.20;4.50;;;6.90;99.90;;;;;;5091236;28;20276;-87
2023/02/01 09:28:35;;;;;;;15.43;3.47;;;6.90;99.90;;;;;;5099211;28;20201;-79
2023/02/01 09:31:03;;;;;;;19.85;4.85;;;6.90;99.90;;;;;;5097059;28;20433;-83
2023/02/01 09:33:30;;;;;;;14.73;3.83;;;7.10;99.90;;;;;;5084632;28;20574;-80
2023/02/01 09:36:08;;;;;;;24.37;4.47;;;7.10;99.90;;;;;;5078716;28;20244;-87
2023/02/01 09:38:35;;;;;;;24.00;4.27;;;7.10;99.90;;;;;;5079663;28;20190;-80
2023/02/01 09:41:25;;;;;;;15.70;3.50;;;7.20;99.90;;;;;;5076903;28;20201;-86
2023/02/01 09:43:59;;;;;;;11.77;3.73;;;7.30;99.90;;;;;;5078737;28;20720;-82
2023/02/01 09:46:30;;;;;;;16.87;3.70;;;7.30;99.90;;;;;;5088227;28;20201;-85
2023/02/01 09:49:01;;;;;;;20.33;4.17;;;7.40;99.90;;;;;;5084668;28;20208;-83
2023/02/01 09:51:37;;;;;;;18.33;3.70;;;7.50;99.90;;;;;;5084567;28;20260;-79
2023/02/01 09:54:12;;;;;;;20.47;4.03;;;7.60;99.90;;;;;;5078729;28;20202;-78
2023/02/01 09:56:47;;;;;;;13.57;3.50;;;7.60;99.90;;;;;;5088996;28;20199;-81
2023/02/01 09:59:27;;;;;;;13.97;3.67;;;7.70;99.90;;;;;;5091863;28;20733;-79
2023/02/01 10:02:02;;;;;;;18.43;3.63;;;7.70;99.90;;;;;;5099086;28;20249;-86
2023/02/01 10:04:30;;;;;;;19.50;3.43;;;7.90;99.90;;;;;;5095266;28;20201;-91
2023/02/01 10:07:16;;;;;;;19.43;4.00;;;7.80;99.90;;;;;;5098774;28;20201;-79
2023/02/01 10:09:51;;;;;;;17.13;3.73;;;7.90;99.90;;;;;;5088433;28;20288;-81
2023/02/01 10:13:01;;;;;;;17.23;3.37;;;8.00;99.90;;;;;;5084661;28;20201;-88
2023/02/01 10:15:44;;;;;;;15.27;3.03;;;8.00;99.90;;;;;;5042305;28;20199;-85
2023/02/01 10:18:25;;;;;;;11.80;3.50;;;8.00;99.90;;;;;;5048939;28;20343;-86
2023/02/01 10:21:02;;;;;;;12.90;2.67;;;8.10;99.90;;;;;;5080067;28;20239;-86
2023/02/01 10:23:53;;;;;;;16.60;2.87;;;8.10;99.90;;;;;;5085400;28;20190;-79
2023/02/01 10:26:21;;;;;;;16.53;3.30;;;8.10;99.90;;;;;;5075260;28;20205;-80
2023/02/01 10:28:53;;;;;;;18.33;3.47;;;8.20;99.90;;;;;;5078565;28;20198;-88
2023/02/01 10:31:23;;;;;;;16.23;3.73;;;8.20;99.90;;;;;;5081940;28;21070;-79
2023/02/01 10:33:52;;;;;;;9.60;3.13;;;8.30;99.90;;;;;;5088992;28;20211;-80
2023/02/01 10:36:23;;;;;;;14.30;3.70;;;8.30;99.90;;;;;;5080626;28;20206;-79
2023/02/01 10:38:50;;;;;;;10.33;2.77;;;8.40;99.90;;;;;;5081035;28;20536;-79
2023/02/01 10:41:20;;;;;;;10.33;3.20;;;8.50;99.90;;;;;;5088186;28;20225;-78
2023/02/01 10:43:51;;;;;;;13.13;3.30;;;8.50;99.90;;;;;;5093180;28;20209;-80
2023/02/01 10:46:19;;;;;;;12.03;3.83;;;8.60;99.90;;;;;;5093473;28;20205;-79
2023/02/01 10:48:51;;;;;;;20.70;3.97;;;8.70;99.90;;;;;;5093877;28;20203;-78
2023/02/01 10:51:25;;;;;;;12.97;2.87;;;8.70;99.90;;;;;;5082135;28;20206;-80
2023/02/01 10:54:01;;;;;;;15.20;3.27;;;8.80;99.90;;;;;;5088401;28;20616;-80
2023/02/01 10:56:29;;;;;;;13.07;3.10;;;8.80;99.90;;;;;;5093394;28;20224;-78
2023/02/01 10:59:02;;;;;;;14.45;4.10;;;8.80;99.90;;;;;;5091488;28;20799;-83
2023/02/01 11:01:35;;;;;;;12.50;3.03;;;9.00;99.90;;;;;;5092623;28;20286;-79
2023/02/01 11:04:03;;;;;;;19.50;4.13;;;9.10;99.90;;;;;;5091909;28;20639;-79
2023/02/01 11:06:31;;;;;;;10.17;2.87;;;9.20;99.90;;;;;;5092425;28;20207;-79
2023/02/01 11:09:02;;;;;;;9.73;2.97;;;9.20;99.90;;;;;;5087875;28;20228;-80
2023/02/01 11:11:30;;;;;;;8.60;2.87;;;9.30;99.90;;;;;;5077916;28;20288;-79
2023/02/01 11:14:00;;;;;;;14.30;2.70;;;9.40;99.90;;;;;;5090059;28;20216;-80
2023/02/01 11:16:35;;;;;;;9.87;2.63;;;9.40;99.90;;;;;;5080943;28;20574;-78
2023/02/01 11:19:03;;;;;;;15.03;2.70;;;9.30;99.90;;;;;;5079122;28;20204;-86
2023/02/01 11:21:31;;;;;;;12.07;2.43;;;9.20;99.90;;;;;;5079619;28;20229;-79
2023/02/01 11:24:02;;;;;;;13.97;2.73;;;9.20;99.90;;;;;;5087214;28;20193;-80
2023/02/01 11:26:29;;;;;;;11.27;3.17;;;9.20;99.90;;;;;;5089785;28;20205;-80
2023/02/01 11:29:01;;;;;;;9.97;2.63;;;9.20;99.90;;;;;;5088434;28;20206;-85
2023/02/01 11:31:33;;;;;;;11.87;2.70;;;9.20;99.90;;;;;;5079934;28;20202;-81
2023/02/01 11:34:06;;;;;;;14.90;2.80;;;9.30;99.90;;;;;;5079481;28;20212;-79
2023/02/01 11:36:36;;;;;;;10.90;2.80;;;9.30;99.90;;;;;;5080922;28;20210;-82
2023/02/01 11:39:29;;;;;;;10.63;2.50;;;9.40;99.90;;;;;;5078040;28;20217;-82
2023/02/01 11:42:01;;;;;;;10.47;2.13;;;9.30;99.90;;;;;;5080629;28;20236;-80
2023/02/01 11:44:34;;;;;;;9.30;2.57;;;9.30;99.90;;;;;;5079444;28;20563;-79
2023/02/01 11:47:27;;;;;;;14.53;3.60;;;9.20;99.90;;;;;;5077162;28;20190;-81
2023/02/01 11:49:55;;;;;;;16.47;3.03;;;9.40;99.90;;;;;;5079267;28;20589;-78
2023/02/01 11:52:50;;;;;;;10.63;2.70;;;9.50;99.90;;;;;;5080129;28;20194;-81
2023/02/01 11:55:42;;;;;;;11.83;2.80;;;9.50;99.90;;;;;;5079265;28;20561;-78
2023/02/01 11:58:23;;;;;;;18.02;3.90;;;9.60;99.90;;;;;;5078501;28;20419;-86
2023/02/01 12:01:05;;;;;;;12.40;2.53;;;9.80;99.90;;;;;;5079910;28;20633;-81
2023/02/01 12:04:14;;;;;;;6.20;1.90;;;9.80;99.90;;;;;;5077685;28;20210;-82
2023/02/01 12:06:50;;;;;;;6.57;1.60;;;9.70;99.90;;;;;;5071181;28;20202;-87
2023/02/01 12:09:36;;;;;;;9.30;2.17;;;9.70;99.90;;;;;;5077154;28;20649;-83
2023/02/01 12:12:16;;;;;;;9.97;2.50;;;9.70;99.90;;;;;;5079964;28;20208;-81
2023/02/01 12:15:05;;;;;;;11.43;2.37;;;9.80;99.90;;;;;;5079040;28;20201;-85
2023/02/01 12:17:49;;;;;;;11.52;2.90;;;9.90;99.90;;;;;;5076778;28;20463;-85
2023/02/01 12:20:34;;;;;;;10.57;3.13;;;10.00;99.90;;;;;;5084484;28;20204;-85
2023/02/01 12:23:15;;;;;;;7.80;2.63;;;9.90;99.90;;;;;;5098429;28;20228;-87
2023/02/01 12:25:57;;;;;;;10.13;2.20;;;10.00;99.90;;;;;;5098492;28;20327;-86
2023/02/01 12:28:55;;;;;;;11.10;2.10;;;10.10;99.90;;;;;;5098697;28;20210;-85
2023/02/01 12:31:35;;;;;;;15.30;2.43;;;10.20;99.90;;;;;;5096343;28;20212;-85
2023/02/01 12:34:19;;;;;;;10.37;1.67;;;10.20;99.90;;;;;;5097199;28;20300;-88
2023/02/01 12:36:54;;;;;;;9.67;2.40;;;10.30;99.90;;;;;;5091263;28;20208;-86
2023/02/01 12:39:28;;;;;;;9.80;1.80;;;10.30;99.90;;;;;;5090329;28;20675;-86
2023/02/01 12:42:01;;;;;;;5.97;2.93;;;10.50;99.90;;;;;;5096933;28;20236;-89
2023/02/01 12:44:43;;;;;;;9.30;1.80;;;10.40;99.90;;;;;;5098300;28;20313;-91
2023/02/01 12:47:20;;;;;;;8.90;2.90;;;10.50;99.90;;;;;;5098971;28;20193;-88
2023/02/01 12:49:53;;;;;;;4.87;1.87;;;10.50;99.90;;;;;;5099220;28;20540;-91
2023/02/01 12:52:28;;;;;;;6.67;2.10;;;10.60;99.90;;;;;;5099065;28;20190;-88
2023/02/01 12:55:02;;;;;;;6.63;1.90;;;10.50;99.90;;;;;;5097183;28;20199;-90
2023/02/01 12:57:33;;;;;;;9.80;2.00;;;10.40;99.90;;;;;;5096603;28;20202;-89
2023/02/01 13:00:09;;;;;;;11.00;2.70;;;10.40;99.90;;;;;;5093568;28;20189;-90
2023/02/01 13:02:42;;;;;;;7.80;1.60;;;10.40;99.90;;;;;;5098951;28;20274;-89
2023/02/01 13:05:19;;;;;;;10.03;2.00;;;10.30;99.90;;;;;;5098572;28;20240;-90
2023/02/01 13:07:53;;;;;;;7.83;2.33;;;10.40;99.90;;;;;;5096909;28;20213;-90
2023/02/01 13:10:28;;;;;;;8.97;2.00;;;10.40;99.90;;;;;;5097078;28;20216;-91
2023/02/01 13:13:00;;;;;;;8.20;2.00;;;10.50;99.90;;;;;;5096178;28;20207;-89
2023/02/01 13:15:30;;;;;;;7.93;2.23;;;10.50;99.90;;;;;;5095765;28;20197;-86
2023/02/01 13:18:02;;;;;;;10.83;2.53;;;10.60;99.90;;;;;;5094179;28;20201;-90
2023/02/01 13:20:33;;;;;;;8.13;2.47;;;10.70;99.90;;;;;;5096613;28;20197;-89
2023/02/01 13:23:05;;;;;;;8.00;2.00;;;10.50;99.90;;;;;;5096161;28;20267;-89
2023/02/01 13:25:37;;;;;;;9.57;2.07;;;10.60;99.90;;;;;;5089246;28;20212;-88
2023/02/01 13:28:07;;;;;;;12.25;3.30;;;10.40;99.90;;;;;;5079105;28;20799;-89
2023/02/01 13:30:56;;;;;;;10.50;2.00;;;10.50;99.90;;;;;;5077997;28;20534;-79
2023/02/01 13:33:50;;;;;;;8.27;2.40;;;10.50;99.90;;;;;;5076477;28;20232;-91
2023/02/01 13:36:44;;;;;;;11.07;2.63;;;10.40;99.90;;;;;;5077205;28;20206;-90
2023/02/01 13:39:53;;;;;;;8.77;1.93;;;10.40;99.90;;;;;;5078015;28;20208;-90
2023/02/01 13:42:24;;;;;;;7.33;2.00;;;10.30;99.90;;;;;;5077002;28;20234;-90